KTKX

Details ICAO KTKX
Name KENNETT MEM
Region United States
Timezone America/Chicago (UTC-5.0)
Plans Departing 6
Arriving 1
Stats Elevation 262 ft / 80 m (AMSL)
Location 36.226560° -90.036204°
Runways 2
Magnetic Variation 1.462° W
Sunrise 2018-05-25 10:48:39 UTC / 2018-05-25 05:48:39 Local
Sunset 2018-05-26 01:08:26 UTC / 2018-05-25 20:08:26 Local
Advertisement - Login to hide

Runways

ID Width Length Bearing (true) Bearing (mag) Surface Threshold Offset Overrun Length
02 75 ft / 23 m 5,010 ft / 1,527 m 17.80° 19.26° Concrete 0 ft / 0 m 0 ft / 0 m
18 75 ft / 23 m 3,020 ft / 920 m 178.53° 179.99° Asphalt 0 ft / 0 m 0 ft / 0 m
20 75 ft / 23 m 5,010 ft / 1,527 m 197.80° 199.26° Concrete 0 ft / 0 m 0 ft / 0 m
36 75 ft / 23 m 3,020 ft / 920 m 358.53° 359.99° Asphalt 0 ft / 0 m 0 ft / 0 m

Map

Weather


0- 5 10 15 20 25 30 35+ Temperature / ° C

Clouds and Precipitation
Forecast for 2018-05-26 00:00 UTC. Updated 2 hours ago

Ground ~20,000 ft ~40,000 ft Winds

METAR

KTKX 260055Z AUTO 13005KT 6SM BR CLR 25/23 A2986 RMK AO2

TAF

Not found

Frequencies

Unicom 122.80 MHz CTAF/UNICOM
Warning: Do not use this data for real-world aviation or navigation. No guarantee of current accuracy is given.